NFFN/NAN METAR and TAF weather

Enter ICAO airport designator
Station Type Date Time Source
NFFN METAR 2019/08/24 22:00 UTC NOAA

NFFN 242200Z 08015KT 9999 SCT030 BKN050 25/17 Q1015 NOSIG


Station Type Date Time Source
NFFN Decoded METAR 2019/08/24 22:00 UTC NOAA

Station name not available
Aug 24, 2019 - 06:00 PM EDT / 2019.08.24 2200 UTC
Wind: from the E (080 degrees) at 17 MPH (15 KT):0
Visibility: greater than 7 mile(s):0
Sky conditions: mostly cloudy
Temperature: 77 F (25 C)
Dew Point: 62 F (17 C)
Relative Humidity: 61%
Pressure (altimeter): 29.97 in. Hg (1015 hPa)
ob: NFFN 242200Z 08015KT 9999 SCT030 BKN050 25/17 Q1015 NOSIG
cycle: 22

Station Type Date Time Source
NFFN TAF 2019/08/24 18:06 UTC NOAA

TAF TAF NFFN 241704Z 2418/2518 13008KT 9999 SCT030 BKN050 PROB40
TEMPO 2420/2506 13015G25KT

Example: see airport list